Time;durP1;ratioP1;P1;durP2;ratioP2;P2;SDS_P1;SDS_P2;PMS_P1;PMS_P2;Temp;Humidity;BMP_temperature;BMP_pressure;BME280_temperature;BME280_humidity;BME280_pressure;Samples;Min_cycle;Max_cycle;Signal;HPM_P1;HPM_P2
2021/05/14 06:11:33;;;;;;;2.00;1.13;;;;;;;18.94;48.59;100887.91;4794955;24;20070;-91
2021/05/14 06:56:19;;;;;;;2.25;1.20;;;;;;;19.02;48.65;100915.59;4947177;24;20056;-90
2021/05/14 08:03:21;;;;;;;2.88;1.60;;;;;;;19.18;48.05;100936.22;762524;24;20336;-84
2021/05/14 08:05:50;;;;;;;2.60;1.70;;;;;;;19.08;48.37;100936.38;4761112;30;20514;-89
2021/05/14 08:08:18;;;;;;;2.30;1.55;;;;;;;19.17;48.07;100939.75;4749002;30;20116;-90
2021/05/14 08:10:44;;;;;;;2.92;1.63;;;;;;;19.23;48.07;100947.47;4758605;30;20040;-89
2021/05/14 08:38:29;;;;;;;16.30;6.28;;;;;;;19.53;48.34;100969.63;4700883;30;20606;-91
2021/05/14 08:52:07;;;;;;;12.13;3.65;;;;;;;19.65;48.82;100960.75;4762742;30;20104;-92
2021/05/14 09:02:22;;;;;;;;;;;;;;;;;;;;;
2021/05/14 09:08:16;;;;;;;;;;;;;;;;;;;;;
2021/05/14 09:11:14;;;;;;;;;;;;;;;;;;;;;
2021/05/14 09:13:55;;;;;;;7.70;2.80;;;;;;;19.76;49.86;100965.84;4754776;30;20028;-91
2021/05/14 09:17:33;;;;;;;;;;;;;;;;;;;;;
2021/05/14 09:30:37;;;;;;;;;;;;;;;;;;;;;
2021/05/14 09:33:36;;;;;;;8.95;2.85;;;;;;;19.72;48.50;100978.06;4753865;30;20048;-90
2021/05/14 09:36:29;;;;;;;6.68;2.50;;;;;;;19.76;48.36;100979.75;4739326;30;20106;-93
2021/05/14 09:52:16;;;;;;;;;;;;;;;;;;;;;
2021/05/14 10:01:37;;;;;;;;;;;;;;;;;;;;;
2021/05/14 10:04:48;;;;;;;;;;;;;;;;;;;;;
2021/05/14 10:07:40;;;;;;;7.75;2.58;;;;;;;19.85;48.09;100978.72;4703528;30;20049;-91
2021/05/14 10:10:30;;;;;;;;;;;;;;;;;;;;;
2021/05/14 10:16:06;;;;;;;;;;;;;;;;;;;;;
2021/05/14 10:27:45;;;;;;;4.90;1.90;;;;;;;20.10;48.00;100976.56;4747738;30;20128;-93
2021/05/14 10:30:11;;;;;;;8.02;2.30;;;;;;;20.10;47.98;100976.56;4739849;30;20037;-92
2021/05/14 10:33:03;;;;;;;4.30;2.33;;;;;;;20.06;47.41;100972.28;4726825;30;20032;-91
2021/05/14 10:35:30;;;;;;;4.35;1.80;;;;;;;20.14;47.91;100972.97;4741416;30;20036;-89
2021/05/14 10:38:08;;;;;;;2.97;1.75;;;;;;;20.14;48.01;100968.63;4742630;30;20032;-91
2021/05/14 10:40:34;;;;;;;5.63;2.35;;;;;;;20.22;47.82;100975.47;4728496;30;20036;-91
2021/05/14 10:43:04;;;;;;;4.40;2.10;;;;;;;20.30;47.54;100963.13;4758239;30;20062;-92
2021/05/14 10:45:40;;;;;;;5.35;2.10;;;;;;;20.37;47.43;100967.34;4757309;30;20113;-91
2021/05/14 10:48:26;;;;;;;4.55;2.70;;;;;;;20.37;47.30;100971.72;4757811;30;20049;-91
2021/05/14 10:50:54;;;;;;;3.72;1.90;;;;;;;20.40;47.39;100972.50;4758923;30;20055;-92
2021/05/14 10:53:30;;;;;;;4.65;2.03;;;;;;;20.43;47.38;100976.84;4761468;30;20074;-92
2021/05/14 10:56:17;;;;;;;6.07;2.30;;;;;;;20.40;47.40;100972.50;4775949;30;20032;-89
2021/05/14 10:58:49;;;;;;;4.75;2.22;;;;;;;20.29;47.53;100977.94;4749578;30;20039;-91
2021/05/14 11:01:32;;;;;;;3.50;2.00;;;;;;;20.30;47.56;100976.19;4776630;30;20032;-90
2021/05/14 11:03:59;;;;;;;5.43;2.67;;;;;;;20.30;47.54;100973.59;4763901;30;20047;-91
2021/05/14 11:06:25;;;;;;;4.93;2.38;;;;;;;20.33;47.37;100969.13;4763725;30;20046;-90
2021/05/14 11:09:16;;;;;;;5.35;2.70;;;;;;;20.34;47.60;100975.25;4765007;30;20032;-89
2021/05/14 11:12:20;;;;;;;3.78;1.95;;;;;;;20.41;47.17;100966.41;4777329;30;20040;-91
2021/05/14 11:14:47;;;;;;;6.32;3.58;;;;;;;20.39;47.18;100969.94;4758052;30;20090;-90
2021/05/14 11:17:17;;;;;;;5.05;2.58;;;;;;;20.40;47.23;100969.03;4731725;30;20035;-89
2021/05/14 11:19:55;;;;;;;3.88;1.80;;;;;;;20.41;47.34;100974.25;4777416;30;20032;-89
2021/05/14 11:22:37;;;;;;;6.25;3.40;;;;;;;20.34;45.97;100965.66;4763551;30;20043;-90
2021/05/14 11:25:16;;;;;;;5.68;3.40;;;;;;;20.29;46.29;100966.63;4748040;30;20032;-90
2021/05/14 11:27:42;;;;;;;4.95;2.90;;;;;;;20.33;46.47;100963.06;4762974;30;20070;-89
2021/05/14 11:30:14;;;;;;;3.80;2.05;;;;;;;20.40;47.46;100966.41;4763491;30;20047;-89
2021/05/14 11:32:46;;;;;;;4.63;2.60;;;;;;;20.49;46.92;100963.63;4777088;30;20054;-92
2021/05/14 11:35:13;;;;;;;4.63;3.15;;;;;;;20.49;46.38;100963.63;4763718;30;20038;-91
2021/05/14 11:37:39;;;;;;;5.03;4.10;;;;;;;20.40;45.78;100969.03;4763366;30;20385;-91
2021/05/14 11:40:13;;;;;;;7.53;3.35;;;;;;;20.42;47.27;100964.63;4778991;30;20042;-91
2021/05/14 11:42:51;;;;;;;3.17;2.10;;;;;;;20.41;47.08;100961.16;4772029;24;21635;-90
2021/05/14 11:45:22;;;;;;;4.38;2.83;;;;;;;20.47;47.08;100965.41;4778211;30;20115;-92
2021/05/14 11:47:54;;;;;;;3.35;2.25;;;;;;;20.47;47.08;100955.81;4777078;30;20031;-92
2021/05/14 11:50:37;;;;;;;3.33;2.20;;;;;;;20.56;46.98;100962.63;4777973;30;20097;-91
2021/05/14 11:53:05;;;;;;;4.32;2.85;;;;;;;20.57;46.95;100963.47;4778666;30;20067;-91
2021/05/14 11:55:32;;;;;;;5.95;3.88;;;;;;;20.50;46.69;100967.97;4777071;30;20040;-92
2021/05/14 11:57:59;;;;;;;4.25;2.47;;;;;;;20.55;46.85;100971.34;4764295;30;20040;-93
2021/05/14 12:01:35;;;;;;;;;;;;;;;;;;;;;
2021/05/14 12:04:52;;;;;;;;;;;;;;;;;;;;;
2021/05/14 12:08:00;;;;;;;;;;;;;;;;;;;;;
2021/05/14 12:14:35;;;;;;;;;;;;;;;;;;;;;
2021/05/14 12:20:20;;;;;;;;;;;;;;;;;;;;;
2021/05/14 12:30:17;;;;;;;;;;;;;;;;;;;;;
2021/05/14 12:33:13;;;;;;;;;;;;;;;;;;;;;
2021/05/14 12:36:32;;;;;;;;;;;;;;;;;;;;;
2021/05/14 12:39:38;;;;;;;3.40;2.30;;;;;;;20.52;47.24;100968.81;4756745;30;20134;-90
2021/05/14 12:42:36;;;;;;;;;;;;;;;;;;;;;
2021/05/14 12:45:42;;;;;;;;;;;;;;;;;;;;;
2021/05/14 12:47:56;;;;;;;;;;;;;;;20.22;46.00;100958.03;4753471;30;20389;-91
2021/05/14 12:50:26;;;;;;;4.72;2.95;;;;;;;20.28;46.46;100955.31;4739879;30;19922;-91
2021/05/14 12:52:51;;;;;;;4.10;2.80;;;;;;;20.38;47.34;100960.34;4753263;30;20111;-90
2021/05/14 12:55:17;;;;;;;3.55;2.72;;;;;;;20.41;47.40;100960.31;4768809;30;20488;-91
2021/05/14 12:57:52;;;;;;;4.68;2.40;;;;;;;20.42;47.49;100967.25;4769973;30;20089;-91
2021/05/14 13:00:25;;;;;;;3.60;2.40;;;;;;;20.43;47.44;100966.38;4756120;30;20119;-90
2021/05/14 13:02:58;;;;;;;;;;;;;;;20.46;47.28;100967.16;4754829;30;20476;-91
2021/05/14 13:05:32;;;;;;;4.78;2.40;;;;;;;20.46;47.46;100958.47;4769193;30;19918;-93
2021/05/14 13:08:00;;;;;;;6.10;3.58;;;;;;;20.34;46.48;100957.81;4753876;30;20032;-90
2021/05/14 13:10:42;;;;;;;4.20;2.53;;;;;;;20.35;47.11;100961.28;4769082;30;20127;-90
2021/05/14 13:13:21;;;;;;;3.67;2.70;;;;;;;20.42;47.60;100962.03;4754708;30;20496;-92
2021/05/14 13:15:47;;;;;;;4.00;2.58;;;;;;;20.39;46.71;100960.34;4769577;30;20109;-91
2021/05/14 13:18:30;;;;;;;3.03;2.30;;;;;;;20.43;46.63;100969.00;4756220;30;20108;-91
2021/05/14 13:20:57;;;;;;;;;;;;;;;20.36;46.44;100963.03;4756855;30;20040;-91
2021/05/14 13:23:23;;;;;;;4.32;2.90;;;;;;;20.40;47.13;100959.44;4758085;30;20313;-90
2021/05/14 13:25:51;;;;;;;5.57;2.92;;;;;;;20.40;46.45;100954.19;4743189;30;20037;-90
2021/05/14 13:28:20;;;;;;;4.18;3.05;;;;;;;20.39;46.66;100952.50;4771747;30;20093;-90
2021/05/14 13:34:07;;;;;;;4.72;2.63;;;;;;;20.33;46.64;100950.84;4756731;30;20047;-90
2021/05/14 13:36:36;;;;;;;4.78;3.00;;;;;;;20.37;46.77;100950.81;4756826;30;20060;-91
2021/05/14 13:39:01;;;;;;;5.78;2.88;;;;;;;20.35;46.70;100949.06;4760250;30;20366;-92
2021/05/14 13:41:27;;;;;;;5.15;2.80;;;;;;;20.27;46.53;100947.50;4759197;30;20054;-92
2021/05/14 13:43:53;;;;;;;6.32;2.70;;;;;;;20.19;46.81;100944.19;4779694;30;20086;-91
2021/05/14 13:46:19;;;;;;;4.57;2.70;;;;;;;20.25;47.41;100949.28;4750926;30;20041;-90
2021/05/14 13:48:44;;;;;;;5.32;2.72;;;;;;;20.28;47.11;100947.47;4761789;30;20128;-90
2021/05/14 13:51:15;;;;;;;5.32;2.83;;;;;;;20.21;46.77;100948.50;4757366;30;20348;-91
2021/05/14 13:53:40;;;;;;;4.10;2.45;;;;;;;20.30;47.65;100942.22;4772815;30;20064;-92
2021/05/14 13:56:06;;;;;;;3.20;2.25;;;;;;;20.38;47.47;100947.28;4757781;30;20062;-89
2021/05/14 13:58:32;;;;;;;4.05;2.78;;;;;;;20.29;47.00;100940.47;4756456;30;20041;-90
2021/05/14 14:00:57;;;;;;;6.13;2.92;;;;;;;20.15;46.67;100935.53;4756015;30;20036;-91
2021/05/14 14:03:22;;;;;;;4.78;2.90;;;;;;;20.10;46.92;100929.53;4755639;30;20488;-91
2021/05/14 14:05:48;;;;;;;4.90;3.00;;;;;;;20.03;46.66;100926.16;4770221;30;20035;-90
2021/05/14 14:08:14;;;;;;;5.85;2.60;;;;;;;20.07;47.25;100926.97;4755251;30;20044;-90
2021/05/14 14:10:41;;;;;;;4.40;2.42;;;;;;;20.08;47.26;100933.94;4771092;30;20032;-90
2021/05/14 14:13:08;;;;;;;6.05;2.72;;;;;;;20.03;46.78;100927.91;4755074;30;20412;-94
2021/05/14 14:15:35;;;;;;;5.00;2.40;;;;;;;20.05;47.22;100931.34;4772361;30;20035;-90
2021/05/14 14:18:00;;;;;;;3.42;2.72;;;;;;;20.06;46.69;100930.47;4744179;30;20550;-91
2021/05/14 14:20:25;;;;;;;2.90;2.20;;;;;;;20.16;47.77;100928.53;4744396;30;20029;-90
2021/05/14 14:22:52;;;;;;;4.40;2.35;;;;;;;20.13;47.01;100932.94;4759398;30;20036;-92
2021/05/14 14:25:18;;;;;;;5.50;2.80;;;;;;;20.07;47.12;100935.66;4758856;30;20117;-92
2021/05/14 14:27:44;;;;;;;4.15;2.40;;;;;;;20.06;47.13;100933.09;4758270;30;20550;-89
2021/05/14 14:30:14;;;;;;;2.83;2.10;;;;;;;20.15;47.49;100938.13;4773895;30;20032;-93
2021/05/14 14:32:41;;;;;;;3.92;2.90;;;;;;;20.12;46.82;100930.34;4773026;30;20028;-92
2021/05/14 14:35:13;;;;;;;3.25;2.20;;;;;;;20.26;47.83;100937.94;4758545;30;20028;-91
2021/05/14 14:37:39;;;;;;;2.75;2.08;;;;;;;20.38;47.78;100935.06;4758741;30;20108;-89
2021/05/14 14:40:05;;;;;;;3.20;1.90;;;;;;;20.45;47.73;100936.69;4744170;30;20080;-91
2021/05/14 14:42:31;;;;;;;4.45;1.90;;;;;;;20.49;47.11;100932.25;4743970;30;20040;-91
2021/05/14 14:44:56;;;;;;;3.35;2.15;;;;;;;20.55;47.47;100929.50;4777680;30;20069;-91
2021/05/14 14:47:22;;;;;;;4.32;2.20;;;;;;;20.54;46.85;100930.41;4764017;30;20436;-92
2021/05/14 14:49:47;;;;;;;3.40;1.98;;;;;;;20.55;47.75;100924.28;4765605;30;20039;-92
2021/05/14 14:52:12;;;;;;;4.50;2.05;;;;;;;20.57;47.61;100935.59;4766015;30;20348;-93
2021/05/14 14:54:38;;;;;;;2.83;1.70;;;;;;;20.58;47.65;100944.31;4779899;30;20032;-91
2021/05/14 14:57:04;;;;;;;2.95;1.85;;;;;;;20.56;47.61;100933.88;4733071;30;20139;-92
2021/05/14 14:59:29;;;;;;;2.40;1.65;;;;;;;20.50;47.36;100928.75;4762578;30;20032;-93
2021/05/14 15:01:54;;;;;;;2.25;1.67;;;;;;;20.54;47.54;100930.41;4776289;30;20036;-93
2021/05/14 15:04:23;;;;;;;2.75;1.77;;;;;;;20.54;47.38;100925.19;4775808;30;20119;-91
2021/05/14 15:06:49;;;;;;;3.25;1.98;;;;;;;20.52;47.53;100932.19;4761242;30;20039;-92
2021/05/14 15:09:14;;;;;;;2.92;2.33;;;;;;;20.47;47.12;100934.91;4760815;30;20484;-91
2021/05/14 15:11:40;;;;;;;2.88;1.88;;;;;;;20.48;47.52;100935.78;4761606;30;20484;-90
2021/05/14 15:14:05;;;;;;;3.50;1.70;;;;;;;20.48;47.97;100934.00;4764967;30;20529;-90
2021/05/14 15:16:30;;;;;;;3.38;2.00;;;;;;;20.49;48.07;100929.63;4766613;30;20039;-90
2021/05/14 15:18:56;;;;;;;3.97;2.33;;;;;;;20.45;47.53;100934.09;4763054;30;20130;-92
2021/05/14 15:21:21;;;;;;;3.33;2.10;;;;;;;20.45;47.54;100930.63;4747170;30;20036;-90
2021/05/14 15:23:49;;;;;;;2.90;1.70;;;;;;;20.46;47.94;100929.72;4776956;30;20054;-90
2021/05/14 15:26:18;;;;;;;6.63;1.73;;;;;;;20.47;47.56;100926.19;4759414;30;20110;-90
2021/05/14 15:28:43;;;;;;;5.20;2.10;;;;;;;20.42;46.70;100931.50;4760592;30;20152;-92
2021/05/14 15:31:09;;;;;;;3.75;1.88;;;;;;;20.44;47.40;100926.25;4730656;30;20138;-91
2021/05/14 15:33:34;;;;;;;3.83;1.85;;;;;;;20.47;47.56;100923.56;4730806;30;20070;-90
2021/05/14 15:36:01;;;;;;;3.05;1.88;;;;;;;20.41;47.18;100929.81;4760317;30;20549;-93
2021/05/14 15:38:28;;;;;;;4.85;1.83;;;;;;;20.45;47.88;100935.84;4775210;30;20120;-91
2021/05/14 15:40:54;;;;;;;3.80;1.90;;;;;;;20.45;48.16;100934.09;4760557;30;20046;-90
2021/05/14 15:43:19;;;;;;;9.68;1.77;;;;;;;20.49;48.16;100927.03;4746791;30;20055;-92
2021/05/14 15:45:45;;;;;;;5.13;1.70;;;;;;;20.49;48.08;100925.28;4778017;30;20484;-90
2021/05/14 15:48:15;;;;;;;3.10;1.65;;;;;;;20.50;48.01;100923.53;4761326;30;20063;-90
2021/05/14 15:50:40;;;;;;;3.88;1.77;;;;;;;20.53;48.00;100923.44;4760625;30;20077;-91
2021/05/14 15:53:06;;;;;;;5.35;2.10;;;;;;;20.50;47.57;100919.16;4745572;30;20135;-92
2021/05/14 15:55:31;;;;;;;3.47;2.00;;;;;;;20.48;48.19;100920.09;4760682;30;20047;-90
2021/05/14 15:57:57;;;;;;;2.92;1.70;;;;;;;20.49;48.36;100920.06;4745445;30;20053;-93
2021/05/14 16:00:23;;;;;;;2.13;1.52;;;;;;;20.50;48.28;100921.75;4760144;30;20024;-91
2021/05/14 16:02:52;;;;;;;4.05;2.05;;;;;;;20.54;48.44;100928.66;4732468;30;20534;-92
2021/05/14 16:05:17;;;;;;;4.05;2.28;;;;;;;20.47;47.95;100921.84;4750554;30;20066;-91
2021/05/14 16:07:44;;;;;;;4.35;2.10;;;;;;;20.44;47.98;100928.88;4756057;30;20036;-91
2021/05/14 16:10:10;;;;;;;4.53;2.13;;;;;;;20.43;48.38;100922.78;4770881;30;20028;-92
2021/05/14 16:12:38;;;;;;;3.70;1.95;;;;;;;20.47;47.81;100934.03;4777816;30;20020;-91
2021/05/14 16:15:08;;;;;;;2.90;1.73;;;;;;;20.47;47.80;100926.19;4761076;30;20032;-91
2021/05/14 16:17:35;;;;;;;3.20;2.00;;;;;;;20.51;48.44;100926.13;4775512;30;20027;-91
2021/05/14 16:20:00;;;;;;;3.20;1.80;;;;;;;20.53;48.58;100931.28;4760465;30;20135;-91
2021/05/14 16:22:26;;;;;;;3.47;1.77;;;;;;;20.52;48.51;100930.44;4759113;30;20036;-91
2021/05/14 16:24:54;;;;;;;3.92;2.38;;;;;;;20.40;47.17;100928.06;4758858;30;20031;-91
2021/05/14 16:27:21;;;;;;;2.80;1.67;;;;;;;20.45;48.64;100921.00;4774354;30;20031;-91
2021/05/14 16:29:49;;;;;;;5.05;2.08;;;;;;;20.49;48.60;100922.69;4773663;30;20028;-90
2021/05/14 16:32:15;;;;;;;3.97;1.85;;;;;;;20.52;48.87;100927.81;4743332;30;20032;-91
2021/05/14 16:34:41;;;;;;;2.83;1.63;;;;;;;20.55;48.76;100919.91;4772157;30;20031;-90
2021/05/14 16:37:07;;;;;;;2.20;1.40;;;;;;;20.60;48.73;100916.38;4743147;30;20059;-89
2021/05/14 16:39:35;;;;;;;3.10;1.85;;;;;;;20.49;48.31;100917.44;4772148;30;20062;-92
2021/05/14 16:42:01;;;;;;;3.65;1.60;;;;;;;20.46;49.80;100921.88;4756849;30;20465;-91
2021/05/14 16:44:27;;;;;;;2.95;1.92;;;;;;;20.45;49.01;100935.84;4756971;30;20491;-93
2021/05/14 16:46:53;;;;;;;4.28;2.00;;;;;;;20.43;49.56;100914.94;4756507;30;20046;-90
2021/05/14 16:49:19;;;;;;;2.85;1.85;;;;;;;20.45;49.50;100928.84;4727456;30;20078;-92
2021/05/14 16:51:44;;;;;;;3.25;1.73;;;;;;;20.43;49.79;100930.63;4757049;30;20031;-91
2021/05/14 16:54:11;;;;;;;4.60;2.28;;;;;;;20.43;49.52;100919.31;4756427;30;20055;-93
2021/05/14 16:56:36;;;;;;;2.80;1.80;;;;;;;20.42;49.76;100923.66;4771173;30;20024;-92
2021/05/14 16:59:03;;;;;;;6.85;2.13;;;;;;;20.45;49.50;100928.00;4772066;30;20038;-89
2021/05/14 17:01:28;;;;;;;11.48;2.80;;;;;;;20.45;51.45;100918.41;4772647;30;20092;-91
2021/05/14 17:03:54;;;;;;;16.10;2.95;;;;;;;20.45;51.43;100917.53;4742109;30;20043;-91
2021/05/14 17:06:38;;;;;;;9.18;2.97;;;;;;;20.46;53.03;100914.03;4757111;30;20035;-91
2021/05/14 17:09:04;;;;;;;7.57;2.53;;;;;;;20.46;51.71;100917.50;4756552;30;20034;-91
2021/05/14 17:11:29;;;;;;;8.07;2.75;;;;;;;20.43;51.69;100917.56;4756245;30;20040;-89
2021/05/14 17:13:54;;;;;;;4.03;2.40;;;;;;;20.44;51.18;100916.66;4771017;30;20040;-91
2021/05/14 17:16:20;;;;;;;7.47;3.10;;;;;;;20.43;51.05;100914.94;4770999;30;20606;-91
2021/05/14 17:18:46;;;;;;;4.20;2.78;;;;;;;20.45;50.94;100920.16;4756012;30;20039;-91
2021/05/14 17:21:14;;;;;;;8.50;3.00;;;;;;;20.41;51.00;100910.66;4756764;30;20036;-91
2021/05/14 17:23:40;;;;;;;6.20;2.90;;;;;;;20.40;50.82;100911.53;4771613;30;20048;-92
2021/05/14 17:26:06;;;;;;;10.10;3.25;;;;;;;20.32;50.88;100909.94;4742410;30;20069;-91
2021/05/14 17:28:31;;;;;;;7.10;2.97;;;;;;;20.34;50.70;100908.16;4770713;30;20074;-91
2021/05/14 17:30:58;;;;;;;9.35;3.70;;;;;;;20.25;50.30;100908.34;4756299;30;20118;-93
2021/05/14 17:33:26;;;;;;;4.20;2.75;;;;;;;20.25;50.56;100903.13;4772263;30;20471;-94
2021/05/14 17:35:53;;;;;;;5.43;2.85;;;;;;;20.27;50.91;100903.94;4756792;30;20032;-93
2021/05/14 17:38:21;;;;;;;6.70;2.70;;;;;;;20.18;50.64;100898.03;4772605;30;20093;-93
2021/05/14 17:40:47;;;;;;;5.05;2.80;;;;;;;20.32;51.17;100904.72;4772712;30;20032;-90
2021/05/14 17:43:15;;;;;;;3.95;2.60;;;;;;;20.37;51.16;100895.91;4753752;30;20120;-93
2021/05/14 17:45:42;;;;;;;5.97;2.72;;;;;;;20.40;50.94;100899.31;4753980;30;20119;-92
2021/05/14 17:48:08;;;;;;;5.93;2.97;;;;;;;20.33;50.42;100895.09;4767899;30;20028;-90
2021/05/14 17:50:34;;;;;;;5.75;2.30;;;;;;;20.33;51.25;100898.56;4759972;30;20033;-90
2021/05/14 17:52:59;;;;;;;4.50;2.50;;;;;;;20.33;50.96;100898.56;4769334;30;20124;-91
2021/05/14 17:55:25;;;;;;;4.32;2.72;;;;;;;20.35;51.11;100904.63;4773446;30;20040;-90
2021/05/14 17:57:51;;;;;;;5.40;2.70;;;;;;;20.35;50.89;100898.56;4762183;30;20565;-91
2021/05/14 18:00:18;;;;;;;4.80;2.58;;;;;;;20.38;50.86;100903.72;4757961;30;20481;-90
2021/05/14 18:02:43;;;;;;;4.72;2.70;;;;;;;20.35;50.90;100896.78;4757512;30;20055;-90
2021/05/14 18:05:09;;;;;;;4.15;2.60;;;;;;;20.35;50.79;100896.78;4742039;30;20033;-91
2021/05/14 18:07:34;;;;;;;4.80;2.60;;;;;;;20.39;50.71;100902.84;4742481;30;20044;-90
2021/05/14 18:10:00;;;;;;;7.72;2.72;;;;;;;20.32;50.59;100909.94;4756612;30;20055;-91
2021/05/14 18:12:25;;;;;;;3.70;2.63;;;;;;;20.31;50.60;100907.34;4757327;30;20043;-91
2021/05/14 18:14:50;;;;;;;3.63;2.40;;;;;;;20.29;50.85;100907.38;4756612;30;20036;-91
2021/05/14 18:17:23;;;;;;;4.55;2.60;;;;;;;20.29;50.74;100909.97;4771367;30;20070;-92
2021/05/14 18:19:48;;;;;;;3.70;2.47;;;;;;;20.29;50.56;100925.66;4771705;30;20120;-93
2021/05/14 18:22:13;;;;;;;5.35;2.70;;;;;;;20.23;50.68;100911.84;4756511;30;20052;-90
2021/05/14 18:24:39;;;;;;;5.55;2.75;;;;;;;20.22;50.40;100931.06;4771059;30;20025;-89
2021/05/14 18:27:06;;;;;;;4.55;2.50;;;;;;;20.23;50.49;100928.41;4755661;30;20036;-91
2021/05/14 18:29:31;;;;;;;6.68;2.90;;;;;;;20.18;50.17;100926.78;4755967;30;20036;-91
2021/05/14 18:31:57;;;;;;;6.00;2.88;;;;;;;20.20;50.84;100936.28;4770947;30;20028;-90
2021/05/14 18:34:23;;;;;;;3.88;2.60;;;;;;;20.22;50.77;100928.44;4772729;30;20040;-90
2021/05/14 18:36:48;;;;;;;4.80;2.70;;;;;;;20.20;50.13;100922.38;4760751;30;20477;-92
2021/05/14 18:39:14;;;;;;;4.90;2.60;;;;;;;20.13;49.98;100919.03;4787138;30;20103;-91
2021/05/14 18:41:39;;;;;;;4.25;2.72;;;;;;;20.16;50.69;100916.34;4785850;30;20059;-92
2021/05/14 18:44:05;;;;;;;4.13;2.55;;;;;;;20.05;50.28;100926.13;4773650;30;20048;-90
2021/05/14 18:46:34;;;;;;;3.20;2.60;;;;;;;20.11;50.45;100923.41;4772624;30;20040;-89
2021/05/14 18:49:00;;;;;;;4.97;2.60;;;;;;;20.13;50.49;100919.03;4771893;30;20545;-90
2021/05/14 18:51:28;;;;;;;5.43;2.75;;;;;;;20.12;50.02;100914.66;4756473;30;20032;-90
2021/05/14 18:53:56;;;;;;;4.47;2.65;;;;;;;20.09;50.38;100912.97;4756472;30;20033;-92
2021/05/14 18:56:22;;;;;;;5.13;2.53;;;;;;;20.13;50.51;100917.25;4741468;30;20036;-93
2021/05/14 18:58:48;;;;;;;4.30;2.70;;;;;;;20.11;50.23;100921.66;4756718;30;20036;-92
2021/05/14 19:01:13;;;;;;;4.05;2.70;;;;;;;20.09;50.33;100915.59;4755326;30;20040;-89
2021/05/14 19:03:42;;;;;;;4.07;2.53;;;;;;;20.08;50.48;100913.03;4755254;30;20040;-90
2021/05/14 19:06:07;;;;;;;3.88;2.60;;;;;;;20.06;50.29;100912.19;4770810;30;20036;-91
2021/05/14 19:08:33;;;;;;;4.72;2.47;;;;;;;20.08;50.51;100915.66;4756241;30;20124;-91
2021/05/14 19:10:59;;;;;;;3.28;2.45;;;;;;;20.09;50.00;100912.13;4770350;30;20049;-90
2021/05/14 19:13:24;;;;;;;4.40;2.50;;;;;;;20.09;50.36;100910.38;4741587;30;20094;-91
2021/05/14 19:15:50;;;;;;;4.30;2.92;;;;;;;20.11;50.38;100910.34;4755529;30;20032;-89
2021/05/14 19:18:15;;;;;;;4.60;2.60;;;;;;;20.09;50.00;100914.75;4756138;30;20032;-91
2021/05/14 19:20:47;;;;;;;3.33;2.30;;;;;;;20.12;50.29;100917.28;4756445;30;20059;-90
2021/05/14 19:47:51;;;;;;;4.32;3.28;;;;;;;20.02;50.91;100947.09;4776352;30;20495;-90
2021/05/14 19:49:57;;;;;;;5.60;3.90;;;;;;;20.03;50.56;100951.41;4758793;30;20081;-88
2021/05/14 19:52:24;;;;;;;9.73;4.80;;;;;;;20.06;50.40;100954.84;4779269;30;20028;-88
2021/05/14 19:54:51;;;;;;;6.97;4.38;;;;;;;20.06;50.31;100954.84;4782039;30;20042;-90
2021/05/14 19:57:18;;;;;;;4.97;3.97;;;;;;;20.03;50.56;100956.66;4764865;30;20024;-89
2021/05/14 19:59:44;;;;;;;4.85;4.22;;;;;;;20.04;50.45;100963.59;4776188;30;20027;-89
2021/05/14 20:02:10;;;;;;;6.78;4.53;;;;;;;20.05;50.45;100957.47;4772316;30;20555;-92
2021/05/14 20:04:37;;;;;;;6.57;4.60;;;;;;;19.97;50.27;100962.84;4758002;30;20040;-91
2021/05/14 20:07:03;;;;;;;7.25;4.65;;;;;;;20.00;50.49;100960.19;4757387;30;20453;-88
2021/05/14 20:09:28;;;;;;;7.57;4.40;;;;;;;20.00;50.19;100960.19;4758597;30;20089;-89
2021/05/14 20:11:57;;;;;;;6.72;4.55;;;;;;;19.96;50.02;100947.19;4773463;30;20027;-89
2021/05/14 20:14:28;;;;;;;8.32;4.65;;;;;;;19.90;50.15;100951.66;4773470;30;20024;-89
2021/05/14 20:16:54;;;;;;;6.25;4.72;;;;;;;19.95;50.71;100956.78;4774450;30;20024;-90
2021/05/14 20:19:20;;;;;;;7.18;4.38;;;;;;;19.96;50.06;100958.50;4756731;30;20031;-89
2021/05/14 20:21:46;;;;;;;6.35;4.43;;;;;;;19.97;50.64;100954.13;4742232;30;20122;-89
2021/05/14 20:24:12;;;;;;;7.90;4.88;;;;;;;19.79;49.88;100957.94;4758188;30;20093;-89
2021/05/14 20:26:37;;;;;;;5.85;4.68;;;;;;;19.73;49.84;100964.13;4743749;30;20035;-88
2021/05/14 20:29:04;;;;;;;5.88;4.40;;;;;;;19.75;50.71;100967.59;4757388;30;20044;-89
2021/05/14 20:31:32;;;;;;;7.53;4.43;;;;;;;19.89;49.93;100967.34;4771999;30;20032;-89
2021/05/14 20:33:59;;;;;;;5.80;4.60;;;;;;;19.96;50.51;100973.31;4757167;30;20077;-89
2021/05/14 20:36:28;;;;;;;5.18;4.35;;;;;;;19.97;50.32;100970.69;4757335;30;20208;-89
2021/05/14 20:41:38;;;;;;;5.63;4.22;;;;;;;19.96;50.28;100966.34;4759133;30;20046;-89
2021/05/14 20:44:04;;;;;;;5.82;4.60;;;;;;;19.92;49.91;100962.06;4757257;30;20075;-91
2021/05/14 20:46:29;;;;;;;6.57;4.30;;;;;;;19.94;49.98;100960.28;4758029;30;20043;-91
2021/05/14 20:48:55;;;;;;;5.80;4.50;;;;;;;19.93;50.24;100961.19;4756509;30;20032;-90
2021/05/14 20:51:20;;;;;;;6.38;4.43;;;;;;;20.00;50.19;100960.19;4757092;30;20040;-90
2021/05/14 20:53:46;;;;;;;4.60;4.20;;;;;;;20.01;49.89;100971.47;4742413;30;20041;-93
2021/05/14 20:56:11;;;;;;;5.18;4.43;;;;;;;20.00;50.23;100972.38;4727818;30;20455;-91
2021/05/14 20:58:37;;;;;;;5.88;4.35;;;;;;;19.99;50.22;100970.66;4771657;30;20396;-90
2021/05/14 21:01:05;;;;;;;5.30;4.20;;;;;;;20.02;49.93;100958.41;4773949;30;20084;-91
2021/05/14 21:03:31;;;;;;;5.97;4.75;;;;;;;19.99;49.95;100955.84;4757545;30;20019;-92
2021/05/14 21:05:57;;;;;;;6.00;4.32;;;;;;;20.01;50.30;100964.53;4777118;30;20411;-89
2021/05/14 21:08:24;;;;;;;5.00;3.97;;;;;;;19.97;49.44;100968.09;4758749;30;20036;-90
2021/05/14 21:10:52;;;;;;;7.45;3.70;;;;;;;19.96;49.96;100966.34;4774059;30;20035;-91
2021/05/14 21:13:19;;;;;;;5.07;3.83;;;;;;;19.97;50.12;100964.59;4756890;30;20040;-91
2021/05/14 21:15:44;;;;;;;5.45;4.05;;;;;;;19.88;50.19;100965.59;4770871;30;20511;-89
2021/05/14 21:18:10;;;;;;;7.00;4.30;;;;;;;19.93;49.45;100962.03;4756484;30;20036;-90
2021/05/14 21:20:35;;;;;;;4.57;4.13;;;;;;;19.87;50.04;100954.31;4756610;30;20399;-90
2021/05/14 21:23:00;;;;;;;4.70;4.18;;;;;;;19.91;49.80;100948.13;4741599;30;20131;-90
2021/05/14 21:25:26;;;;;;;5.05;3.97;;;;;;;19.95;49.96;100941.13;4727765;30;20046;-89
2021/05/14 21:27:52;;;;;;;7.03;4.57;;;;;;;19.96;49.58;100936.75;4741646;30;20111;-92
2021/05/14 21:30:18;;;;;;;5.60;4.25;;;;;;;19.89;49.25;100936.84;4756409;30;20074;-90
2021/05/14 21:32:50;;;;;;;5.00;4.13;;;;;;;19.88;50.24;100929.03;4770720;30;20027;-89
2021/05/14 21:35:17;;;;;;;5.57;4.13;;;;;;;19.91;50.14;100927.25;4771434;30;20031;-90
2021/05/14 21:37:42;;;;;;;5.93;3.90;;;;;;;19.90;50.15;100930.75;4759006;30;20046;-90
2021/05/14 21:40:09;;;;;;;4.45;3.80;;;;;;;19.93;49.88;100925.47;4787544;30;20036;-91
2021/05/14 21:42:34;;;;;;;5.05;3.85;;;;;;;19.79;48.75;100929.22;4782594;30;20063;-92
2021/05/14 21:44:59;;;;;;;4.93;3.80;;;;;;;19.63;49.28;100931.19;4742817;30;20056;-91
2021/05/14 21:47:25;;;;;;;5.60;3.72;;;;;;;19.48;49.00;100927.94;4745301;30;20585;-91
2021/05/14 21:50:00;;;;;;;;;;;;;;;;;;;;;
2021/05/14 21:52:27;;;;;;;4.93;3.88;;;;;;;19.21;48.69;100926.63;4771857;30;20028;-91
2021/05/14 21:54:52;;;;;;;6.60;3.40;;;;;;;19.17;48.38;100932.78;4772226;30;20074;-91
2021/05/14 21:57:18;;;;;;;5.70;3.88;;;;;;;19.18;48.29;100938.84;4773955;30;20032;-91
2021/05/14 21:59:43;;;;;;;5.68;3.55;;;;;;;19.18;48.28;100934.47;4774890;30;20514;-91
2021/05/14 22:02:08;;;;;;;5.00;3.30;;;;;;;19.16;48.44;100928.41;4745155;30;20459;-90
2021/05/14 22:04:34;;;;;;;5.30;3.38;;;;;;;19.08;48.12;100933.75;4762182;30;20032;-91
2021/05/14 22:06:59;;;;;;;5.80;3.70;;;;;;;19.06;48.12;100930.31;4764839;30;20043;-89
2021/05/14 22:16:09;;;;;;;7.68;3.47;;;;;;;19.18;48.06;100917.97;4780162;30;20058;-89
2021/05/14 22:18:34;;;;;;;4.25;2.90;;;;;;;19.15;47.90;100907.59;4776089;30;20122;-87
2021/05/14 22:21:00;;;;;;;4.22;3.15;;;;;;;19.17;47.66;100908.44;4776527;30;20070;-89
2021/05/14 22:23:26;;;;;;;5.65;3.28;;;;;;;19.13;47.68;100906.75;4759407;30;20085;-91